sensor_id;sensor_type;location;lat;lon;timestamp;temperature;humidity
34460;DHT22;20704;51.260;22.558;2023-07-20T00:01:28;19.10;99.90
34460;DHT22;20704;51.260;22.558;2023-07-20T00:03:31;19.00;99.90
34460;DHT22;20704;51.260;22.558;2023-07-20T00:05:33;19.00;99.90
34460;DHT22;20704;51.260;22.558;2023-07-20T00:07:35;19.70;1.00
34460;DHT22;20704;51.260;22.558;2023-07-20T00:09:38;18.90;1.00
34460;DHT22;20704;51.260;22.558;2023-07-20T00:11:40;18.70;96.20
34460;DHT22;20704;51.260;22.558;2023-07-20T00:13:49;18.70;99.90
34460;DHT22;20704;51.260;22.558;2023-07-20T00:15:52;18.70;99.90
34460;DHT22;20704;51.260;22.558;2023-07-20T00:17:55;18.60;99.90
34460;DHT22;20704;51.260;22.558;2023-07-20T00:19:57;18.60;99.90
34460;DHT22;20704;51.260;22.558;2023-07-20T00:21:59;18.70;99.90
34460;DHT22;20704;51.260;22.558;2023-07-20T00:24:01;18.60;99.90
34460;DHT22;20704;51.260;22.558;2023-07-20T00:26:04;18.50;1.00
34460;DHT22;20704;51.260;22.558;2023-07-20T00:28:06;18.60;1.00
34460;DHT22;20704;51.260;22.558;2023-07-20T00:30:09;18.60;99.90
34460;DHT22;20704;51.260;22.558;2023-07-20T00:32:11;18.70;1.00
34460;DHT22;20704;51.260;22.558;2023-07-20T00:34:13;18.70;99.90
34460;DHT22;20704;51.260;22.558;2023-07-20T00:36:16;18.70;99.90
34460;DHT22;20704;51.260;22.558;2023-07-20T00:38:18;18.60;99.90
34460;DHT22;20704;51.260;22.558;2023-07-20T00:40:21;18.60;99.90
34460;DHT22;20704;51.260;22.558;2023-07-20T00:42:23;18.50;1.00
34460;DHT22;20704;51.260;22.558;2023-07-20T00:44:25;18.50;99.90
34460;DHT22;20704;51.260;22.558;2023-07-20T00:46:28;18.50;99.90
34460;DHT22;20704;51.260;22.558;2023-07-20T00:48:31;18.50;1.00
34460;DHT22;20704;51.260;22.558;2023-07-20T00:50:34;18.50;99.90
34460;DHT22;20704;51.260;22.558;2023-07-20T00:52:38;18.50;99.90
34460;DHT22;20704;51.260;22.558;2023-07-20T00:54:44;18.50;99.90
34460;DHT22;20704;51.260;22.558;2023-07-20T00:56:46;18.50;1.00
34460;DHT22;20704;51.260;22.558;2023-07-20T00:58:49;18.50;1.00
34460;DHT22;20704;51.260;22.558;2023-07-20T01:00:51;18.50;1.00
34460;DHT22;20704;51.260;22.558;2023-07-20T01:02:54;18.50;4.50
34460;DHT22;20704;51.260;22.558;2023-07-20T01:04:56;18.50;1.00
34460;DHT22;20704;51.260;22.558;2023-07-20T01:07:10;18.50;99.90
34460;DHT22;20704;51.260;22.558;2023-07-20T01:09:20;18.50;99.90
34460;DHT22;20704;51.260;22.558;2023-07-20T01:13:39;18.50;1.00
34460;DHT22;20704;51.260;22.558;2023-07-20T01:15:41;18.40;99.90
34460;DHT22;20704;51.260;22.558;2023-07-20T01:17:44;18.40;99.90
34460;DHT22;20704;51.260;22.558;2023-07-20T01:19:46;18.40;99.90
34460;DHT22;20704;51.260;22.558;2023-07-20T01:21:56;18.40;82.20
34460;DHT22;20704;51.260;22.558;2023-07-20T01:33:25;18.50;1.00
34460;DHT22;20704;51.260;22.558;2023-07-20T01:35:30;18.40;1.00
34460;DHT22;20704;51.260;22.558;2023-07-20T01:37:34;18.30;1.00
34460;DHT22;20704;51.260;22.558;2023-07-20T01:39:37;18.10;1.00
34460;DHT22;20704;51.260;22.558;2023-07-20T01:41:40;17.90;99.90
34460;DHT22;20704;51.260;22.558;2023-07-20T01:43:42;17.90;1.00
34460;DHT22;20704;51.260;22.558;2023-07-20T01:45:45;17.80;99.90
34460;DHT22;20704;51.260;22.558;2023-07-20T01:47:47;17.80;99.90
34460;DHT22;20704;51.260;22.558;2023-07-20T01:49:49;17.80;1.00
34460;DHT22;20704;51.260;22.558;2023-07-20T01:51:52;17.80;99.90
34460;DHT22;20704;51.260;22.558;2023-07-20T01:53:54;17.80;1.00
34460;DHT22;20704;51.260;22.558;2023-07-20T01:55:57;17.80;99.90
34460;DHT22;20704;51.260;22.558;2023-07-20T01:57:59;17.90;7.00
34460;DHT22;20704;51.260;22.558;2023-07-20T02:00:03;17.90;99.90
34460;DHT22;20704;51.260;22.558;2023-07-20T02:02:05;18.00;34.00
34460;DHT22;20704;51.260;22.558;2023-07-20T02:04:08;18.00;79.20
34460;DHT22;20704;51.260;22.558;2023-07-20T02:06:10;18.10;1.00
34460;DHT22;20704;51.260;22.558;2023-07-20T02:08:12;18.10;99.90
34460;DHT22;20704;51.260;22.558;2023-07-20T02:10:15;18.20;99.90
34460;DHT22;20704;51.260;22.558;2023-07-20T02:12:18;18.20;72.90
34460;DHT22;20704;51.260;22.558;2023-07-20T02:14:20;18.30;99.90
34460;DHT22;20704;51.260;22.558;2023-07-20T02:16:24;18.30;99.90
34460;DHT22;20704;51.260;22.558;2023-07-20T02:18:27;18.30;73.60
34460;DHT22;20704;51.260;22.558;2023-07-20T02:20:29;18.40;99.90
34460;DHT22;20704;51.260;22.558;2023-07-20T02:22:32;18.40;1.00
34460;DHT22;20704;51.260;22.558;2023-07-20T02:24:34;18.40;99.90
34460;DHT22;20704;51.260;22.558;2023-07-20T02:26:36;18.40;99.90
34460;DHT22;20704;51.260;22.558;2023-07-20T02:28:39;18.40;99.90
34460;DHT22;20704;51.260;22.558;2023-07-20T02:30:41;18.50;99.90
34460;DHT22;20704;51.260;22.558;2023-07-20T02:32:44;18.50;99.90
34460;DHT22;20704;51.260;22.558;2023-07-20T02:34:47;18.50;99.90
34460;DHT22;20704;51.260;22.558;2023-07-20T02:36:50;18.50;99.90
34460;DHT22;20704;51.260;22.558;2023-07-20T02:38:52;18.50;99.90
34460;DHT22;20704;51.260;22.558;2023-07-20T02:40:55;18.50;99.90
34460;DHT22;20704;51.260;22.558;2023-07-20T02:42:57;18.40;99.90
34460;DHT22;20704;51.260;22.558;2023-07-20T02:44:59;18.50;99.90
34460;DHT22;20704;51.260;22.558;2023-07-20T02:47:02;18.60;99.90
34460;DHT22;20704;51.260;22.558;2023-07-20T02:49:04;18.50;99.90
34460;DHT22;20704;51.260;22.558;2023-07-20T02:51:07;18.40;86.90
34460;DHT22;20704;51.260;22.558;2023-07-20T02:53:09;18.50;99.90
34460;DHT22;20704;51.260;22.558;2023-07-20T02:55:12;18.40;99.90
34460;DHT22;20704;51.260;22.558;2023-07-20T02:57:14;18.40;1.00
34460;DHT22;20704;51.260;22.558;2023-07-20T02:59:17;18.50;99.90
34460;DHT22;20704;51.260;22.558;2023-07-20T03:01:19;18.40;1.00
34460;DHT22;20704;51.260;22.558;2023-07-20T03:03:22;18.50;99.90
34460;DHT22;20704;51.260;22.558;2023-07-20T03:05:24;18.50;99.90
34460;DHT22;20704;51.260;22.558;2023-07-20T03:07:30;18.60;1.90
34460;DHT22;20704;51.260;22.558;2023-07-20T03:09:32;18.60;1.00
34460;DHT22;20704;51.260;22.558;2023-07-20T03:11:34;18.70;1.00
34460;DHT22;20704;51.260;22.558;2023-07-20T03:13:37;18.70;99.90
34460;DHT22;20704;51.260;22.558;2023-07-20T03:15:39;18.80;99.90
34460;DHT22;20704;51.260;22.558;2023-07-20T03:17:42;18.80;99.90
34460;DHT22;20704;51.260;22.558;2023-07-20T03:19:44;18.90;23.30
34460;DHT22;20704;51.260;22.558;2023-07-20T03:21:46;19.00;1.00
34460;DHT22;20704;51.260;22.558;2023-07-20T03:23:48;19.00;1.00
34460;DHT22;20704;51.260;22.558;2023-07-20T03:25:51;19.00;99.90
34460;DHT22;20704;51.260;22.558;2023-07-20T03:27:56;19.00;1.00
34460;DHT22;20704;51.260;22.558;2023-07-20T03:29:59;18.80;99.90
34460;DHT22;20704;51.260;22.558;2023-07-20T03:32:01;18.90;99.90
34460;DHT22;20704;51.260;22.558;2023-07-20T03:34:03;19.00;99.90
34460;DHT22;20704;51.260;22.558;2023-07-20T03:36:07;19.00;1.00
34460;DHT22;20704;51.260;22.558;2023-07-20T03:38:10;19.00;99.90
34460;DHT22;20704;51.260;22.558;2023-07-20T03:40:12;19.10;99.90
34460;DHT22;20704;51.260;22.558;2023-07-20T03:42:14;19.10;99.90
34460;DHT22;20704;51.260;22.558;2023-07-20T03:44:17;19.20;99.90
34460;DHT22;20704;51.260;22.558;2023-07-20T03:46:19;19.20;99.90
34460;DHT22;20704;51.260;22.558;2023-07-20T03:48:23;19.10;99.90
34460;DHT22;20704;51.260;22.558;2023-07-20T03:50:25;19.20;99.90
34460;DHT22;20704;51.260;22.558;2023-07-20T03:52:28;19.20;99.90
34460;DHT22;20704;51.260;22.558;2023-07-20T03:54:30;19.20;62.30
34460;DHT22;20704;51.260;22.558;2023-07-20T03:56:32;19.20;44.00
34460;DHT22;20704;51.260;22.558;2023-07-20T03:58:37;19.20;1.00
34460;DHT22;20704;51.260;22.558;2023-07-20T04:00:39;19.20;1.00
34460;DHT22;20704;51.260;22.558;2023-07-20T04:02:42;19.30;17.50
34460;DHT22;20704;51.260;22.558;2023-07-20T04:04:45;19.30;1.00
34460;DHT22;20704;51.260;22.558;2023-07-20T04:06:47;19.20;1.00
34460;DHT22;20704;51.260;22.558;2023-07-20T04:08:49;19.20;42.20
34460;DHT22;20704;51.260;22.558;2023-07-20T04:10:52;19.20;1.00
34460;DHT22;20704;51.260;22.558;2023-07-20T04:12:54;19.20;93.40
34460;DHT22;20704;51.260;22.558;2023-07-20T04:14:57;19.20;23.30
34460;DHT22;20704;51.260;22.558;2023-07-20T04:16:59;19.30;1.00
34460;DHT22;20704;51.260;22.558;2023-07-20T04:19:02;19.20;99.90
34460;DHT22;20704;51.260;22.558;2023-07-20T04:21:08;19.20;99.90
34460;DHT22;20704;51.260;22.558;2023-07-20T04:23:11;19.20;99.90
34460;DHT22;20704;51.260;22.558;2023-07-20T04:25:13;19.10;99.90
34460;DHT22;20704;51.260;22.558;2023-07-20T04:27:16;19.20;99.90
34460;DHT22;20704;51.260;22.558;2023-07-20T04:29:19;19.30;1.00
34460;DHT22;20704;51.260;22.558;2023-07-20T04:31:21;19.30;1.00
34460;DHT22;20704;51.260;22.558;2023-07-20T04:33:23;19.30;99.90
34460;DHT22;20704;51.260;22.558;2023-07-20T04:37:47;19.40;99.90
34460;DHT22;20704;51.260;22.558;2023-07-20T04:39:49;19.50;99.90
34460;DHT22;20704;51.260;22.558;2023-07-20T04:41:52;19.50;1.70
34460;DHT22;20704;51.260;22.558;2023-07-20T04:43:54;19.40;1.00
34460;DHT22;20704;51.260;22.558;2023-07-20T04:45:56;19.40;1.00
34460;DHT22;20704;51.260;22.558;2023-07-20T04:47:59;19.40;1.00
34460;DHT22;20704;51.260;22.558;2023-07-20T04:50:01;19.40;99.90
34460;DHT22;20704;51.260;22.558;2023-07-20T04:52:04;19.50;1.00
34460;DHT22;20704;51.260;22.558;2023-07-20T04:54:06;19.50;1.00
34460;DHT22;20704;51.260;22.558;2023-07-20T04:56:09;19.50;1.00
34460;DHT22;20704;51.260;22.558;2023-07-20T04:58:12;19.50;1.00
34460;DHT22;20704;51.260;22.558;2023-07-20T05:00:15;19.50;1.00
34460;DHT22;20704;51.260;22.558;2023-07-20T05:02:17;19.60;99.90
34460;DHT22;20704;51.260;22.558;2023-07-20T05:04:20;19.50;99.90
34460;DHT22;20704;51.260;22.558;2023-07-20T05:06:23;19.50;99.90
34460;DHT22;20704;51.260;22.558;2023-07-20T05:08:26;19.50;99.90
34460;DHT22;20704;51.260;22.558;2023-07-20T05:10:29;19.50;99.90
34460;DHT22;20704;51.260;22.558;2023-07-20T05:12:31;19.50;99.90
34460;DHT22;20704;51.260;22.558;2023-07-20T05:14:33;19.50;99.90
34460;DHT22;20704;51.260;22.558;2023-07-20T05:16:36;19.40;99.90
34460;DHT22;20704;51.260;22.558;2023-07-20T05:18:39;19.30;13.70
34460;DHT22;20704;51.260;22.558;2023-07-20T05:20:41;19.20;99.90
34460;DHT22;20704;51.260;22.558;2023-07-20T05:22:44;19.20;99.90
34460;DHT22;20704;51.260;22.558;2023-07-20T05:24:46;19.10;99.90
34460;DHT22;20704;51.260;22.558;2023-07-20T05:26:49;19.10;99.90
34460;DHT22;20704;51.260;22.558;2023-07-20T05:28:51;19.10;99.90
34460;DHT22;20704;51.260;22.558;2023-07-20T05:30:54;19.10;1.00
34460;DHT22;20704;51.260;22.558;2023-07-20T05:32:56;19.20;99.90
34460;DHT22;20704;51.260;22.558;2023-07-20T05:34:58;19.20;48.30
34460;DHT22;20704;51.260;22.558;2023-07-20T05:37:01;19.30;99.90
34460;DHT22;20704;51.260;22.558;2023-07-20T05:39:03;19.40;99.90
34460;DHT22;20704;51.260;22.558;2023-07-20T05:41:06;19.50;1.00
34460;DHT22;20704;51.260;22.558;2023-07-20T05:43:12;19.50;63.50
34460;DHT22;20704;51.260;22.558;2023-07-20T05:45:15;19.50;1.00
34460;DHT22;20704;51.260;22.558;2023-07-20T05:47:17;19.50;1.00
34460;DHT22;20704;51.260;22.558;2023-07-20T05:49:20;19.50;99.90
34460;DHT22;20704;51.260;22.558;2023-07-20T05:51:22;19.50;99.90
34460;DHT22;20704;51.260;22.558;2023-07-20T05:53:24;19.40;28.60
34460;DHT22;20704;51.260;22.558;2023-07-20T05:55:27;19.30;1.00
34460;DHT22;20704;51.260;22.558;2023-07-20T05:57:29;19.30;99.90
34460;DHT22;20704;51.260;22.558;2023-07-20T05:59:31;19.20;99.90
34460;DHT22;20704;51.260;22.558;2023-07-20T06:01:34;19.20;99.90
34460;DHT22;20704;51.260;22.558;2023-07-20T06:03:36;19.20;99.90
34460;DHT22;20704;51.260;22.558;2023-07-20T06:05:39;19.10;78.90
34460;DHT22;20704;51.260;22.558;2023-07-20T06:07:41;19.00;1.00
34460;DHT22;20704;51.260;22.558;2023-07-20T06:09:44;19.00;14.20
34460;DHT22;20704;51.260;22.558;2023-07-20T06:11:46;19.00;90.30
34460;DHT22;20704;51.260;22.558;2023-07-20T06:13:49;19.00;99.90
34460;DHT22;20704;51.260;22.558;2023-07-20T06:15:51;18.90;99.90
34460;DHT22;20704;51.260;22.558;2023-07-20T06:17:54;18.90;1.00
34460;DHT22;20704;51.260;22.558;2023-07-20T06:19:58;18.90;1.00
34460;DHT22;20704;51.260;22.558;2023-07-20T06:22:00;18.80;99.90
34460;DHT22;20704;51.260;22.558;2023-07-20T06:24:02;18.80;99.90
34460;DHT22;20704;51.260;22.558;2023-07-20T06:26:08;18.70;96.80
34460;DHT22;20704;51.260;22.558;2023-07-20T06:28:10;18.60;58.70
34460;DHT22;20704;51.260;22.558;2023-07-20T06:30:12;18.60;52.60
34460;DHT22;20704;51.260;22.558;2023-07-20T06:32:14;18.60;1.00
34460;DHT22;20704;51.260;22.558;2023-07-20T06:34:17;18.50;1.00
34460;DHT22;20704;51.260;22.558;2023-07-20T06:36:22;18.40;1.00
34460;DHT22;20704;51.260;22.558;2023-07-20T06:38:25;18.30;1.00
34460;DHT22;20704;51.260;22.558;2023-07-20T06:40:30;18.20;99.90
34460;DHT22;20704;51.260;22.558;2023-07-20T06:42:34;18.10;99.90
34460;DHT22;20704;51.260;22.558;2023-07-20T06:44:39;18.10;99.90
34460;DHT22;20704;51.260;22.558;2023-07-20T06:46:42;18.10;99.90
34460;DHT22;20704;51.260;22.558;2023-07-20T06:48:44;18.00;99.90
34460;DHT22;20704;51.260;22.558;2023-07-20T06:50:49;17.90;99.90
34460;DHT22;20704;51.260;22.558;2023-07-20T06:52:52;17.90;99.90
34460;DHT22;20704;51.260;22.558;2023-07-20T06:54:55;17.90;99.90
34460;DHT22;20704;51.260;22.558;2023-07-20T06:56:59;17.90;99.90
34460;DHT22;20704;51.260;22.558;2023-07-20T06:59:19;18.00;99.90
34460;DHT22;20704;51.260;22.558;2023-07-20T07:01:21;18.00;99.90
34460;DHT22;20704;51.260;22.558;2023-07-20T07:03:25;18.00;1.00
34460;DHT22;20704;51.260;22.558;2023-07-20T07:05:29;18.00;1.00
34460;DHT22;20704;51.260;22.558;2023-07-20T07:07:34;18.10;1.00
34460;DHT22;20704;51.260;22.558;2023-07-20T07:09:37;18.10;99.90
34460;DHT22;20704;51.260;22.558;2023-07-20T07:11:40;18.10;1.00
34460;DHT22;20704;51.260;22.558;2023-07-20T07:13:42;18.20;99.90
34460;DHT22;20704;51.260;22.558;2023-07-20T07:15:44;18.20;99.90
34460;DHT22;20704;51.260;22.558;2023-07-20T07:17:47;18.20;99.90
34460;DHT22;20704;51.260;22.558;2023-07-20T07:19:51;18.20;12.70
34460;DHT22;20704;51.260;22.558;2023-07-20T07:21:55;18.20;75.90
34460;DHT22;20704;51.260;22.558;2023-07-20T07:24:01;18.10;53.30
34460;DHT22;20704;51.260;22.558;2023-07-20T07:26:04;18.20;1.00
34460;DHT22;20704;51.260;22.558;2023-07-20T07:28:06;18.10;1.00
34460;DHT22;20704;51.260;22.558;2023-07-20T07:30:08;18.10;1.00
34460;DHT22;20704;51.260;22.558;2023-07-20T07:32:11;18.20;1.00
34460;DHT22;20704;51.260;22.558;2023-07-20T07:34:13;18.10;99.90
34460;DHT22;20704;51.260;22.558;2023-07-20T07:36:16;18.10;99.90
34460;DHT22;20704;51.260;22.558;2023-07-20T07:38:19;18.10;99.90
34460;DHT22;20704;51.260;22.558;2023-07-20T07:40:25;18.10;99.90
34460;DHT22;20704;51.260;22.558;2023-07-20T07:42:29;18.10;99.90
34460;DHT22;20704;51.260;22.558;2023-07-20T07:44:31;18.10;99.90
34460;DHT22;20704;51.260;22.558;2023-07-20T07:46:33;18.00;99.90
34460;DHT22;20704;51.260;22.558;2023-07-20T07:48:36;18.10;99.90
34460;DHT22;20704;51.260;22.558;2023-07-20T07:50:38;18.00;1.00
34460;DHT22;20704;51.260;22.558;2023-07-20T07:52:42;18.10;99.90
34460;DHT22;20704;51.260;22.558;2023-07-20T07:54:44;18.10;1.00
34460;DHT22;20704;51.260;22.558;2023-07-20T07:56:46;18.00;1.00
34460;DHT22;20704;51.260;22.558;2023-07-20T07:58:49;17.90;1.00
34460;DHT22;20704;51.260;22.558;2023-07-20T08:00:54;17.90;1.00
34460;DHT22;20704;51.260;22.558;2023-07-20T08:02:56;17.80;99.90
34460;DHT22;20704;51.260;22.558;2023-07-20T08:04:58;17.80;99.90
34460;DHT22;20704;51.260;22.558;2023-07-20T08:07:04;17.70;99.90
34460;DHT22;20704;51.260;22.558;2023-07-20T08:09:06;17.70;99.90
34460;DHT22;20704;51.260;22.558;2023-07-20T08:11:08;17.70;1.00
34460;DHT22;20704;51.260;22.558;2023-07-20T08:13:11;17.80;1.00
34460;DHT22;20704;51.260;22.558;2023-07-20T08:15:13;17.80;99.90
34460;DHT22;20704;51.260;22.558;2023-07-20T08:17:17;17.90;99.90
34460;DHT22;20704;51.260;22.558;2023-07-20T08:19:19;17.80;1.00
34460;DHT22;20704;51.260;22.558;2023-07-20T08:21:22;17.90;1.00
34460;DHT22;20704;51.260;22.558;2023-07-20T08:23:24;17.90;1.00
34460;DHT22;20704;51.260;22.558;2023-07-20T08:25:27;18.00;99.90
34460;DHT22;20704;51.260;22.558;2023-07-20T08:27:29;18.00;1.00
34460;DHT22;20704;51.260;22.558;2023-07-20T08:29:31;18.10;99.90
34460;DHT22;20704;51.260;22.558;2023-07-20T08:31:33;18.20;99.90
34460;DHT22;20704;51.260;22.558;2023-07-20T08:33:36;18.30;99.90
34460;DHT22;20704;51.260;22.558;2023-07-20T08:35:38;18.30;99.90
34460;DHT22;20704;51.260;22.558;2023-07-20T08:37:41;18.40;99.90
34460;DHT22;20704;51.260;22.558;2023-07-20T08:39:43;18.50;99.90
34460;DHT22;20704;51.260;22.558;2023-07-20T08:41:46;18.60;99.90
34460;DHT22;20704;51.260;22.558;2023-07-20T08:43:49;18.70;99.90
34460;DHT22;20704;51.260;22.558;2023-07-20T08:45:55;18.70;1.00
34460;DHT22;20704;51.260;22.558;2023-07-20T08:48:00;18.80;1.00
34460;DHT22;20704;51.260;22.558;2023-07-20T08:50:05;18.80;1.00
34460;DHT22;20704;51.260;22.558;2023-07-20T08:52:09;18.90;1.00
34460;DHT22;20704;51.260;22.558;2023-07-20T08:54:13;18.80;99.90
34460;DHT22;20704;51.260;22.558;2023-07-20T08:56:18;18.60;99.90
34460;DHT22;20704;51.260;22.558;2023-07-20T08:58:23;18.50;99.90
34460;DHT22;20704;51.260;22.558;2023-07-20T09:00:28;18.30;99.90
34460;DHT22;20704;51.260;22.558;2023-07-20T09:02:35;18.40;99.90
34460;DHT22;20704;51.260;22.558;2023-07-20T09:04:38;18.50;99.90
34460;DHT22;20704;51.260;22.558;2023-07-20T09:06:40;18.60;99.90
34460;DHT22;20704;51.260;22.558;2023-07-20T09:08:46;18.70;99.90
34460;DHT22;20704;51.260;22.558;2023-07-20T09:10:49;18.90;99.90
34460;DHT22;20704;51.260;22.558;2023-07-20T09:12:51;18.90;99.90
34460;DHT22;20704;51.260;22.558;2023-07-20T09:14:57;19.10;99.90
34460;DHT22;20704;51.260;22.558;2023-07-20T09:16:59;19.20;99.90
34460;DHT22;20704;51.260;22.558;2023-07-20T09:19:02;19.30;99.90
34460;DHT22;20704;51.260;22.558;2023-07-20T09:21:05;19.60;99.90
34460;DHT22;20704;51.260;22.558;2023-07-20T09:23:10;19.80;99.90
34460;DHT22;20704;51.260;22.558;2023-07-20T09:25:17;20.30;99.90
34460;DHT22;20704;51.260;22.558;2023-07-20T09:27:38;20.30;6.30
34460;DHT22;20704;51.260;22.558;2023-07-20T09:29:51;20.60;1.00
34460;DHT22;20704;51.260;22.558;2023-07-20T09:32:03;20.80;1.00
34460;DHT22;20704;51.260;22.558;2023-07-20T09:34:06;21.10;1.00
34460;DHT22;20704;51.260;22.558;2023-07-20T09:36:12;21.20;1.00
34460;DHT22;20704;51.260;22.558;2023-07-20T09:38:35;21.90;1.00
34460;DHT22;20704;51.260;22.558;2023-07-20T09:40:58;22.50;99.90
34460;DHT22;20704;51.260;22.558;2023-07-20T09:43:02;22.70;99.90
34460;DHT22;20704;51.260;22.558;2023-07-20T09:45:10;22.60;99.90
34460;DHT22;20704;51.260;22.558;2023-07-20T09:47:13;22.50;99.90
34460;DHT22;20704;51.260;22.558;2023-07-20T09:49:29;22.60;99.90
34460;DHT22;20704;51.260;22.558;2023-07-20T09:51:52;22.60;99.90
34460;DHT22;20704;51.260;22.558;2023-07-20T09:53:56;22.50;99.90
34460;DHT22;20704;51.260;22.558;2023-07-20T09:55:59;22.60;99.90
34460;DHT22;20704;51.260;22.558;2023-07-20T09:58:03;22.70;99.90
34460;DHT22;20704;51.260;22.558;2023-07-20T10:00:07;22.80;99.90
34460;DHT22;20704;51.260;22.558;2023-07-20T10:02:32;23.10;99.90
34460;DHT22;20704;51.260;22.558;2023-07-20T10:04:36;23.20;99.90
34460;DHT22;20704;51.260;22.558;2023-07-20T10:06:42;23.20;99.90
34460;DHT22;20704;51.260;22.558;2023-07-20T10:08:51;23.20;99.90
34460;DHT22;20704;51.260;22.558;2023-07-20T10:10:54;23.40;99.90
34460;DHT22;20704;51.260;22.558;2023-07-20T10:12:57;23.40;99.90
34460;DHT22;20704;51.260;22.558;2023-07-20T10:15:32;23.40;99.90
34460;DHT22;20704;51.260;22.558;2023-07-20T10:17:45;23.30;99.90
34460;DHT22;20704;51.260;22.558;2023-07-20T10:19:54;23.20;99.90
34460;DHT22;20704;51.260;22.558;2023-07-20T10:22:06;23.00;99.90
34460;DHT22;20704;51.260;22.558;2023-07-20T10:24:11;22.90;99.90
34460;DHT22;20704;51.260;22.558;2023-07-20T10:26:15;23.00;99.90
34460;DHT22;20704;51.260;22.558;2023-07-20T10:28:17;23.00;99.90
34460;DHT22;20704;51.260;22.558;2023-07-20T10:30:20;23.00;99.90
34460;DHT22;20704;51.260;22.558;2023-07-20T10:32:23;22.90;99.90
34460;DHT22;20704;51.260;22.558;2023-07-20T10:34:25;23.00;99.90
34460;DHT22;20704;51.260;22.558;2023-07-20T10:36:28;23.00;99.90
34460;DHT22;20704;51.260;22.558;2023-07-20T10:38:53;23.00;99.90
34460;DHT22;20704;51.260;22.558;2023-07-20T10:40:56;22.90;99.90
34460;DHT22;20704;51.260;22.558;2023-07-20T10:43:04;22.80;99.90
34460;DHT22;20704;51.260;22.558;2023-07-20T10:45:07;22.80;99.90
34460;DHT22;20704;51.260;22.558;2023-07-20T10:47:11;22.90;99.90
34460;DHT22;20704;51.260;22.558;2023-07-20T10:49:15;23.00;99.90
34460;DHT22;20704;51.260;22.558;2023-07-20T10:51:21;22.90;99.90
34460;DHT22;20704;51.260;22.558;2023-07-20T10:53:23;22.90;99.90
34460;DHT22;20704;51.260;22.558;2023-07-20T10:55:25;22.90;99.90
34460;DHT22;20704;51.260;22.558;2023-07-20T10:57:31;22.90;99.90
34460;DHT22;20704;51.260;22.558;2023-07-20T11:01:36;23.00;99.90
34460;DHT22;20704;51.260;22.558;2023-07-20T11:03:40;23.10;99.90
34460;DHT22;20704;51.260;22.558;2023-07-20T11:05:42;23.10;99.90
34460;DHT22;20704;51.260;22.558;2023-07-20T11:07:45;23.30;99.90
34460;DHT22;20704;51.260;22.558;2023-07-20T11:09:49;23.50;99.90
34460;DHT22;20704;51.260;22.558;2023-07-20T11:12:12;23.60;99.90
34460;DHT22;20704;51.260;22.558;2023-07-20T11:14:25;23.90;99.90
34460;DHT22;20704;51.260;22.558;2023-07-20T11:18:37;24.30;99.90
34460;DHT22;20704;51.260;22.558;2023-07-20T11:20:42;24.40;99.90
34460;DHT22;20704;51.260;22.558;2023-07-20T11:22:46;24.40;99.90
34460;DHT22;20704;51.260;22.558;2023-07-20T11:24:49;24.40;99.90
34460;DHT22;20704;51.260;22.558;2023-07-20T11:26:52;24.40;99.90
34460;DHT22;20704;51.260;22.558;2023-07-20T11:28:54;24.30;99.90
34460;DHT22;20704;51.260;22.558;2023-07-20T11:30:57;24.40;99.90
34460;DHT22;20704;51.260;22.558;2023-07-20T11:32:59;24.40;99.90
34460;DHT22;20704;51.260;22.558;2023-07-20T11:35:02;24.10;99.90
34460;DHT22;20704;51.260;22.558;2023-07-20T11:37:05;24.10;99.90
34460;DHT22;20704;51.260;22.558;2023-07-20T11:39:12;24.10;99.90
34460;DHT22;20704;51.260;22.558;2023-07-20T11:41:16;24.30;99.90
34460;DHT22;20704;51.260;22.558;2023-07-20T11:43:19;24.50;99.90
34460;DHT22;20704;51.260;22.558;2023-07-20T11:45:25;24.60;99.90
34460;DHT22;20704;51.260;22.558;2023-07-20T11:47:30;24.70;99.90
34460;DHT22;20704;51.260;22.558;2023-07-20T11:49:40;24.80;99.90
34460;DHT22;20704;51.260;22.558;2023-07-20T11:51:43;24.70;99.90
34460;DHT22;20704;51.260;22.558;2023-07-20T11:53:45;24.60;99.90
34460;DHT22;20704;51.260;22.558;2023-07-20T11:55:49;24.50;99.90
34460;DHT22;20704;51.260;22.558;2023-07-20T11:58:04;24.50;99.90
34460;DHT22;20704;51.260;22.558;2023-07-20T12:00:09;24.30;99.90
34460;DHT22;20704;51.260;22.558;2023-07-20T12:02:13;24.20;99.90
34460;DHT22;20704;51.260;22.558;2023-07-20T12:04:16;24.10;99.90
34460;DHT22;20704;51.260;22.558;2023-07-20T12:06:18;24.10;99.90
34460;DHT22;20704;51.260;22.558;2023-07-20T12:08:28;24.00;99.90
34460;DHT22;20704;51.260;22.558;2023-07-20T12:10:30;23.90;99.90
34460;DHT22;20704;51.260;22.558;2023-07-20T12:12:34;23.90;99.90
34460;DHT22;20704;51.260;22.558;2023-07-20T12:14:36;23.80;99.90
34460;DHT22;20704;51.260;22.558;2023-07-20T12:16:39;23.70;99.90
34460;DHT22;20704;51.260;22.558;2023-07-20T12:18:42;23.70;99.90
34460;DHT22;20704;51.260;22.558;2023-07-20T12:20:45;23.70;99.90
34460;DHT22;20704;51.260;22.558;2023-07-20T12:22:48;23.60;99.90
34460;DHT22;20704;51.260;22.558;2023-07-20T12:24:52;23.50;99.90
34460;DHT22;20704;51.260;22.558;2023-07-20T12:26:58;23.50;99.90
34460;DHT22;20704;51.260;22.558;2023-07-20T12:29:00;23.60;99.90
34460;DHT22;20704;51.260;22.558;2023-07-20T12:31:03;23.60;99.90
34460;DHT22;20704;51.260;22.558;2023-07-20T12:33:05;23.60;99.90
34460;DHT22;20704;51.260;22.558;2023-07-20T12:35:08;23.80;99.90
34460;DHT22;20704;51.260;22.558;2023-07-20T12:37:10;23.80;99.90
34460;DHT22;20704;51.260;22.558;2023-07-20T12:39:13;23.80;99.90
34460;DHT22;20704;51.260;22.558;2023-07-20T12:41:16;23.80;99.90
34460;DHT22;20704;51.260;22.558;2023-07-20T12:43:19;23.70;99.90
34460;DHT22;20704;51.260;22.558;2023-07-20T12:45:22;23.70;99.90
34460;DHT22;20704;51.260;22.558;2023-07-20T12:47:24;23.60;99.90
34460;DHT22;20704;51.260;22.558;2023-07-20T12:49:26;23.70;99.90
34460;DHT22;20704;51.260;22.558;2023-07-20T12:51:29;23.90;99.90
34460;DHT22;20704;51.260;22.558;2023-07-20T12:53:32;24.00;99.90
34460;DHT22;20704;51.260;22.558;2023-07-20T12:55:34;24.10;99.90
34460;DHT22;20704;51.260;22.558;2023-07-20T12:57:37;24.20;99.90
34460;DHT22;20704;51.260;22.558;2023-07-20T12:59:40;24.20;99.90
34460;DHT22;20704;51.260;22.558;2023-07-20T13:01:42;24.30;99.90
34460;DHT22;20704;51.260;22.558;2023-07-20T13:03:46;24.30;99.90
34460;DHT22;20704;51.260;22.558;2023-07-20T13:05:51;24.40;99.90
34460;DHT22;20704;51.260;22.558;2023-07-20T13:07:57;24.40;99.90
34460;DHT22;20704;51.260;22.558;2023-07-20T13:10:04;24.40;99.90
34460;DHT22;20704;51.260;22.558;2023-07-20T13:12:07;24.40;99.90